sensor_id;sensor_type;location;lat;lon;timestamp;pressure;altitude;pressure_sealevel;temperature;humidity
40372;BME280;28564;53.346;-6.554;2023-03-14T00:00:50;98626.28;;;5.23;47.77
40372;BME280;28564;53.346;-6.554;2023-03-14T00:03:18;98638.48;;;5.47;47.95
40372;BME280;28564;53.346;-6.554;2023-03-14T00:05:45;98657.24;;;5.43;48.15
40372;BME280;28564;53.346;-6.554;2023-03-14T00:08:13;98661.83;;;5.45;48.38
40372;BME280;28564;53.346;-6.554;2023-03-14T00:10:40;98665.14;;;5.46;48.49
40372;BME280;28564;53.346;-6.554;2023-03-14T00:13:08;98665.69;;;5.45;48.65
40372;BME280;28564;53.346;-6.554;2023-03-14T00:15:35;98667.55;;;5.46;48.72
40372;BME280;28564;53.346;-6.554;2023-03-14T00:18:02;98673.37;;;5.43;48.87
40372;BME280;28564;53.346;-6.554;2023-03-14T00:20:30;98677.26;;;5.46;48.93
40372;BME280;28564;53.346;-6.554;2023-03-14T00:22:57;98683.14;;;5.64;49.09
40372;BME280;28564;53.346;-6.554;2023-03-14T00:25:24;98699.86;;;5.43;49.23
40372;BME280;28564;53.346;-6.554;2023-03-14T00:27:52;98698.86;;;5.44;49.32
40372;BME280;28564;53.346;-6.554;2023-03-14T00:30:19;98697.26;;;5.16;49.43
40372;BME280;28564;53.346;-6.554;2023-03-14T00:32:46;98698.30;;;5.44;49.61
40372;BME280;28564;53.346;-6.554;2023-03-14T00:35:14;98708.50;;;5.47;49.60
40372;BME280;28564;53.346;-6.554;2023-03-14T00:37:41;98720.04;;;5.48;49.61
40372;BME280;28564;53.346;-6.554;2023-03-14T00:40:10;98735.04;;;5.18;49.72
40372;BME280;28564;53.346;-6.554;2023-03-14T00:42:38;98741.17;;;5.44;49.93
40372;BME280;28564;53.346;-6.554;2023-03-14T00:45:06;98740.27;;;5.51;49.96
40372;BME280;28564;53.346;-6.554;2023-03-14T00:47:33;98742.36;;;5.58;49.92
40372;BME280;28564;53.346;-6.554;2023-03-14T00:50:01;98740.51;;;5.38;49.88
40372;BME280;28564;53.346;-6.554;2023-03-14T00:52:28;98745.15;;;5.43;49.75
40372;BME280;28564;53.346;-6.554;2023-03-14T00:54:56;98753.34;;;5.42;49.63
40372;BME280;28564;53.346;-6.554;2023-03-14T00:57:23;98758.14;;;5.69;49.58
40372;BME280;28564;53.346;-6.554;2023-03-14T00:59:51;98759.21;;;5.68;49.55
40372;BME280;28564;53.346;-6.554;2023-03-14T01:02:18;98761.96;;;5.64;49.46
40372;BME280;28564;53.346;-6.554;2023-03-14T01:04:47;98769.42;;;5.59;49.44
40372;BME280;28564;53.346;-6.554;2023-03-14T01:07:14;98781.15;;;5.25;49.53
40372;BME280;28564;53.346;-6.554;2023-03-14T01:09:42;98787.25;;;5.45;49.68
40372;BME280;28564;53.346;-6.554;2023-03-14T01:12:09;98794.27;;;5.45;49.98
40372;BME280;28564;53.346;-6.554;2023-03-14T01:14:37;98796.83;;;5.53;50.07
40372;BME280;28564;53.346;-6.554;2023-03-14T01:17:04;98802.35;;;5.56;49.94
40372;BME280;28564;53.346;-6.554;2023-03-14T01:19:31;98803.65;;;5.60;49.64
40372;BME280;28564;53.346;-6.554;2023-03-14T01:21:59;98808.48;;;5.59;49.60
40372;BME280;28564;53.346;-6.554;2023-03-14T01:24:26;98814.87;;;5.32;49.66
40372;BME280;28564;53.346;-6.554;2023-03-14T01:26:53;98819.65;;;5.32;49.76
40372;BME280;28564;53.346;-6.554;2023-03-14T01:29:21;98826.31;;;5.62;49.80
40372;BME280;28564;53.346;-6.554;2023-03-14T01:31:48;98839.38;;;5.66;49.87
40372;BME280;28564;53.346;-6.554;2023-03-14T01:34:16;98849.88;;;5.45;49.96
40372;BME280;28564;53.346;-6.554;2023-03-14T01:36:43;98868.09;;;5.78;49.93
40372;BME280;28564;53.346;-6.554;2023-03-14T01:39:11;98876.27;;;5.38;49.72
40372;BME280;28564;53.346;-6.554;2023-03-14T01:41:38;98883.41;;;5.63;49.83
40372;BME280;28564;53.346;-6.554;2023-03-14T01:44:09;98892.45;;;5.67;49.95
40372;BME280;28564;53.346;-6.554;2023-03-14T01:46:39;98902.63;;;5.64;50.25
40372;BME280;28564;53.346;-6.554;2023-03-14T01:49:12;98914.40;;;5.57;50.61
40372;BME280;28564;53.346;-6.554;2023-03-14T01:51:46;98920.72;;;5.74;51.06
40372;BME280;28564;53.346;-6.554;2023-03-14T01:54:19;98927.14;;;5.61;51.07
40372;BME280;28564;53.346;-6.554;2023-03-14T01:56:51;98939.50;;;5.19;52.09
40372;BME280;28564;53.346;-6.554;2023-03-14T01:59:20;98952.70;;;5.38;52.73
40372;BME280;28564;53.346;-6.554;2023-03-14T02:01:50;98963.83;;;5.39;52.73
40372;BME280;28564;53.346;-6.554;2023-03-14T02:04:20;98975.27;;;5.39;53.00
40372;BME280;28564;53.346;-6.554;2023-03-14T02:06:53;98984.55;;;5.13;53.21
40372;BME280;28564;53.346;-6.554;2023-03-14T02:09:22;98990.06;;;5.42;53.03
40372;BME280;28564;53.346;-6.554;2023-03-14T02:11:50;98996.35;;;5.41;53.02
40372;BME280;28564;53.346;-6.554;2023-03-14T02:14:27;99003.00;;;5.41;53.02
40372;BME280;28564;53.346;-6.554;2023-03-14T02:16:56;99012.02;;;5.36;52.92
40372;BME280;28564;53.346;-6.554;2023-03-14T02:19:32;99021.20;;;5.32;52.93
40372;BME280;28564;53.346;-6.554;2023-03-14T02:22:06;99029.29;;;5.04;52.91
40372;BME280;28564;53.346;-6.554;2023-03-14T02:24:41;99037.73;;;5.30;53.02
40372;BME280;28564;53.346;-6.554;2023-03-14T02:27:12;99047.12;;;5.32;53.02
40372;BME280;28564;53.346;-6.554;2023-03-14T02:29:45;99051.39;;;5.09;52.96
40372;BME280;28564;53.346;-6.554;2023-03-14T02:32:13;99058.77;;;5.08;52.52
40372;BME280;28564;53.346;-6.554;2023-03-14T02:34:43;99068.16;;;5.32;52.86
40372;BME280;28564;53.346;-6.554;2023-03-14T02:37:13;99071.86;;;5.36;52.75
40372;BME280;28564;53.346;-6.554;2023-03-14T02:39:44;99071.26;;;5.33;52.62
40372;BME280;28564;53.346;-6.554;2023-03-14T02:42:12;99070.79;;;5.30;52.78
40372;BME280;28564;53.346;-6.554;2023-03-14T02:44:49;99060.43;;;5.29;53.02
40372;BME280;28564;53.346;-6.554;2023-03-14T02:47:20;99048.77;;;5.10;53.08
40372;BME280;28564;53.346;-6.554;2023-03-14T02:49:57;99048.38;;;5.39;52.80
40372;BME280;28564;53.346;-6.554;2023-03-14T02:52:27;99059.25;;;5.43;52.70
40372;BME280;28564;53.346;-6.554;2023-03-14T02:54:54;99054.19;;;5.48;52.67
40372;BME280;28564;53.346;-6.554;2023-03-14T02:57:21;99035.95;;;5.49;52.37
40372;BME280;28564;53.346;-6.554;2023-03-14T02:59:49;99046.27;;;5.22;52.41
40372;BME280;28564;53.346;-6.554;2023-03-14T03:02:16;99056.58;;;5.58;52.08
40372;BME280;28564;53.346;-6.554;2023-03-14T03:04:43;99061.98;;;5.55;52.21
40372;BME280;28564;53.346;-6.554;2023-03-14T03:07:11;99053.65;;;5.32;52.33
40372;BME280;28564;53.346;-6.554;2023-03-14T03:09:38;99063.65;;;5.35;52.23
40372;BME280;28564;53.346;-6.554;2023-03-14T03:12:06;99076.45;;;5.62;52.19
40372;BME280;28564;53.346;-6.554;2023-03-14T03:14:33;99077.73;;;5.38;52.09
40372;BME280;28564;53.346;-6.554;2023-03-14T03:17:00;99089.86;;;5.38;52.08
40372;BME280;28564;53.346;-6.554;2023-03-14T03:19:28;99103.39;;;5.67;52.13
40372;BME280;28564;53.346;-6.554;2023-03-14T03:21:55;99134.85;;;5.45;52.16
40372;BME280;28564;53.346;-6.554;2023-03-14T03:24:22;99159.16;;;5.44;51.76
40372;BME280;28564;53.346;-6.554;2023-03-14T03:26:50;99162.62;;;5.62;51.86
40372;BME280;28564;53.346;-6.554;2023-03-14T03:29:17;99172.75;;;5.30;51.95
40372;BME280;28564;53.346;-6.554;2023-03-14T03:31:44;99215.50;;;5.51;51.88
40372;BME280;28564;53.346;-6.554;2023-03-14T03:34:12;99229.38;;;5.44;51.95
40372;BME280;28564;53.346;-6.554;2023-03-14T03:36:40;99236.23;;;5.38;51.97
40372;BME280;28564;53.346;-6.554;2023-03-14T03:39:08;99238.24;;;5.32;52.02
40372;BME280;28564;53.346;-6.554;2023-03-14T03:41:35;99239.97;;;5.03;51.95
40372;BME280;28564;53.346;-6.554;2023-03-14T03:44:03;99228.56;;;5.23;51.98
40372;BME280;28564;53.346;-6.554;2023-03-14T03:46:30;99219.74;;;5.16;51.89
40372;BME280;28564;53.346;-6.554;2023-03-14T03:48:59;99211.03;;;5.14;52.01
40372;BME280;28564;53.346;-6.554;2023-03-14T03:51:26;99228.77;;;5.16;52.09
40372;BME280;28564;53.346;-6.554;2023-03-14T03:53:54;99257.39;;;5.14;52.03
40372;BME280;28564;53.346;-6.554;2023-03-14T03:56:23;99257.63;;;5.12;52.07
40372;BME280;28564;53.346;-6.554;2023-03-14T03:58:50;99271.36;;;5.08;52.09
40372;BME280;28564;53.346;-6.554;2023-03-14T04:01:18;99287.63;;;5.03;52.00
40372;BME280;28564;53.346;-6.554;2023-03-14T04:03:45;99293.98;;;4.99;51.94
40372;BME280;28564;53.346;-6.554;2023-03-14T04:06:13;99298.03;;;4.93;51.91
40372;BME280;28564;53.346;-6.554;2023-03-14T04:08:40;99321.45;;;4.88;51.93
40372;BME280;28564;53.346;-6.554;2023-03-14T04:11:08;99332.47;;;4.80;51.90
40372;BME280;28564;53.346;-6.554;2023-03-14T04:13:36;99337.87;;;4.91;51.78
40372;BME280;28564;53.346;-6.554;2023-03-14T04:16:03;99335.12;;;4.81;51.77
40372;BME280;28564;53.346;-6.554;2023-03-14T04:18:30;99329.06;;;4.51;51.68
40372;BME280;28564;53.346;-6.554;2023-03-14T04:20:58;99336.84;;;4.91;51.59
40372;BME280;28564;53.346;-6.554;2023-03-14T04:23:25;99353.41;;;4.79;51.62
40372;BME280;28564;53.346;-6.554;2023-03-14T04:25:53;99364.66;;;4.21;51.62
40372;BME280;28564;53.346;-6.554;2023-03-14T04:28:21;99374.71;;;4.33;51.73
40372;BME280;28564;53.346;-6.554;2023-03-14T04:30:48;99385.42;;;4.52;51.79
40372;BME280;28564;53.346;-6.554;2023-03-14T04:33:16;99390.50;;;3.95;52.08
40372;BME280;28564;53.346;-6.554;2023-03-14T04:35:44;99394.78;;;4.40;52.16
40372;BME280;28564;53.346;-6.554;2023-03-14T04:38:11;99401.07;;;4.39;52.26
40372;BME280;28564;53.346;-6.554;2023-03-14T04:40:39;99410.21;;;4.38;52.35
40372;BME280;28564;53.346;-6.554;2023-03-14T04:43:06;99412.52;;;4.38;52.34
40372;BME280;28564;53.346;-6.554;2023-03-14T04:45:34;99413.98;;;4.12;52.51
40372;BME280;28564;53.346;-6.554;2023-03-14T04:48:02;99422.42;;;3.91;52.49
40372;BME280;28564;53.346;-6.554;2023-03-14T04:50:29;99426.27;;;4.43;52.46
40372;BME280;28564;53.346;-6.554;2023-03-14T04:52:57;99435.50;;;4.14;52.34
40372;BME280;28564;53.346;-6.554;2023-03-14T04:55:24;99446.69;;;4.41;52.40
40372;BME280;28564;53.346;-6.554;2023-03-14T04:57:52;99456.38;;;4.44;52.30
40372;BME280;28564;53.346;-6.554;2023-03-14T05:00:19;99471.15;;;4.41;52.08
40372;BME280;28564;53.346;-6.554;2023-03-14T05:02:46;99485.78;;;3.87;51.71
40372;BME280;28564;53.346;-6.554;2023-03-14T05:05:14;99497.06;;;4.24;51.55
40372;BME280;28564;53.346;-6.554;2023-03-14T05:07:42;99499.74;;;4.14;51.55
40372;BME280;28564;53.346;-6.554;2023-03-14T05:10:10;99509.21;;;4.03;51.59
40372;BME280;28564;53.346;-6.554;2023-03-14T05:12:37;99518.45;;;3.95;51.56
40372;BME280;28564;53.346;-6.554;2023-03-14T05:15:06;99517.62;;;3.86;51.49
40372;BME280;28564;53.346;-6.554;2023-03-14T05:17:33;99519.65;;;3.74;51.49
40372;BME280;28564;53.346;-6.554;2023-03-14T05:20:01;99521.98;;;3.91;51.51
40372;BME280;28564;53.346;-6.554;2023-03-14T05:22:29;99529.67;;;3.87;51.42
40372;BME280;28564;53.346;-6.554;2023-03-14T05:24:56;99532.39;;;3.54;51.51
40372;BME280;28564;53.346;-6.554;2023-03-14T05:27:23;99536.25;;;3.67;51.53
40372;BME280;28564;53.346;-6.554;2023-03-14T05:29:51;99536.80;;;3.38;51.63
40372;BME280;28564;53.346;-6.554;2023-03-14T05:32:18;99535.98;;;3.52;51.66
40372;BME280;28564;53.346;-6.554;2023-03-14T05:34:46;99541.52;;;3.45;51.74
40372;BME280;28564;53.346;-6.554;2023-03-14T05:37:13;99542.92;;;3.40;51.78
40372;BME280;28564;53.346;-6.554;2023-03-14T05:39:41;99543.48;;;3.37;51.81
40372;BME280;28564;53.346;-6.554;2023-03-14T05:42:08;99551.62;;;3.34;51.77
40372;BME280;28564;53.346;-6.554;2023-03-14T05:44:36;99558.46;;;3.50;51.79
40372;BME280;28564;53.346;-6.554;2023-03-14T05:47:03;99568.87;;;3.26;51.75
40372;BME280;28564;53.346;-6.554;2023-03-14T05:49:31;99577.08;;;3.22;51.68
40372;BME280;28564;53.346;-6.554;2023-03-14T05:51:58;99578.90;;;3.15;51.70
40372;BME280;28564;53.346;-6.554;2023-03-14T05:54:26;99582.62;;;3.06;51.75
40372;BME280;28564;53.346;-6.554;2023-03-14T05:56:53;99591.50;;;3.23;51.78
40372;BME280;28564;53.346;-6.554;2023-03-14T05:59:21;99595.76;;;3.20;51.76
40372;BME280;28564;53.346;-6.554;2023-03-14T06:01:48;99601.76;;;3.15;51.80
40372;BME280;28564;53.346;-6.554;2023-03-14T06:04:15;99604.96;;;3.12;51.83
40372;BME280;28564;53.346;-6.554;2023-03-14T06:06:43;99608.58;;;3.10;51.94
40372;BME280;28564;53.346;-6.554;2023-03-14T06:09:10;99616.52;;;3.11;51.90
40372;BME280;28564;53.346;-6.554;2023-03-14T06:11:38;99621.54;;;3.10;51.81
40372;BME280;28564;53.346;-6.554;2023-03-14T06:14:06;99624.39;;;2.84;51.79
40372;BME280;28564;53.346;-6.554;2023-03-14T06:16:33;99628.32;;;2.79;51.81
40372;BME280;28564;53.346;-6.554;2023-03-14T06:19:00;99634.72;;;2.99;51.80
40372;BME280;28564;53.346;-6.554;2023-03-14T06:21:28;99642.82;;;2.98;51.74
40372;BME280;28564;53.346;-6.554;2023-03-14T06:23:55;99650.54;;;2.96;51.82
40372;BME280;28564;53.346;-6.554;2023-03-14T06:26:23;99652.19;;;2.90;51.94
40372;BME280;28564;53.346;-6.554;2023-03-14T06:28:50;99657.81;;;2.88;51.86
40372;BME280;28564;53.346;-6.554;2023-03-14T06:31:18;99664.67;;;2.86;51.78
40372;BME280;28564;53.346;-6.554;2023-03-14T06:33:45;99665.14;;;2.86;51.73
40372;BME280;28564;53.346;-6.554;2023-03-14T06:36:13;99671.62;;;2.85;51.65
40372;BME280;28564;53.346;-6.554;2023-03-14T06:38:40;99675.65;;;2.81;51.69
40372;BME280;28564;53.346;-6.554;2023-03-14T06:41:08;99678.14;;;2.80;51.72
40372;BME280;28564;53.346;-6.554;2023-03-14T06:43:35;99683.33;;;2.54;51.79
40372;BME280;28564;53.346;-6.554;2023-03-14T06:46:03;99687.37;;;2.75;51.88
40372;BME280;28564;53.346;-6.554;2023-03-14T06:48:30;99690.80;;;2.74;51.92
40372;BME280;28564;53.346;-6.554;2023-03-14T06:50:57;99698.56;;;2.49;51.98
40372;BME280;28564;53.346;-6.554;2023-03-14T06:53:25;99709.26;;;2.71;52.03
40372;BME280;28564;53.346;-6.554;2023-03-14T06:55:53;99718.18;;;2.69;52.03
40372;BME280;28564;53.346;-6.554;2023-03-14T06:58:20;99724.57;;;2.68;52.03
40372;BME280;28564;53.346;-6.554;2023-03-14T07:00:47;99727.77;;;2.95;52.00
40372;BME280;28564;53.346;-6.554;2023-03-14T07:03:15;99736.38;;;2.70;51.86
40372;BME280;28564;53.346;-6.554;2023-03-14T07:05:42;99747.70;;;2.69;51.96
40372;BME280;28564;53.346;-6.554;2023-03-14T07:08:10;99756.47;;;2.74;52.08
40372;BME280;28564;53.346;-6.554;2023-03-14T07:10:37;99771.56;;;2.76;52.20
40372;BME280;28564;53.346;-6.554;2023-03-14T07:13:05;99773.23;;;2.77;52.19
40372;BME280;28564;53.346;-6.554;2023-03-14T07:15:32;99784.66;;;2.76;52.37
40372;BME280;28564;53.346;-6.554;2023-03-14T07:18:00;99787.71;;;2.79;52.40
40372;BME280;28564;53.346;-6.554;2023-03-14T07:20:28;99794.15;;;2.86;52.40
40372;BME280;28564;53.346;-6.554;2023-03-14T07:22:55;99798.12;;;2.88;52.56
40372;BME280;28564;53.346;-6.554;2023-03-14T07:25:22;99803.49;;;2.92;52.45
40372;BME280;28564;53.346;-6.554;2023-03-14T07:27:50;99805.96;;;2.96;52.65
40372;BME280;28564;53.346;-6.554;2023-03-14T07:30:18;99811.23;;;2.79;52.63
40372;BME280;28564;53.346;-6.554;2023-03-14T07:32:45;99816.34;;;2.88;52.92
40372;BME280;28564;53.346;-6.554;2023-03-14T07:35:12;99821.96;;;3.23;52.75
40372;BME280;28564;53.346;-6.554;2023-03-14T07:37:40;99827.71;;;3.38;52.61
40372;BME280;28564;53.346;-6.554;2023-03-14T07:40:08;99836.41;;;3.27;52.71
40372;BME280;28564;53.346;-6.554;2023-03-14T07:42:35;99856.91;;;3.40;52.49
40372;BME280;28564;53.346;-6.554;2023-03-14T07:45:04;99858.61;;;3.46;52.26
40372;BME280;28564;53.346;-6.554;2023-03-14T07:47:31;99858.91;;;3.26;52.20
40372;BME280;28564;53.346;-6.554;2023-03-14T07:49:59;99865.81;;;3.51;52.17
40372;BME280;28564;53.346;-6.554;2023-03-14T07:52:26;99862.92;;;3.73;52.38
40372;BME280;28564;53.346;-6.554;2023-03-14T07:54:54;99868.24;;;3.33;52.48
40372;BME280;28564;53.346;-6.554;2023-03-14T07:57:21;99872.01;;;3.69;52.29
40372;BME280;28564;53.346;-6.554;2023-03-14T07:59:49;99875.97;;;3.50;52.08
40372;BME280;28564;53.346;-6.554;2023-03-14T08:02:17;99882.01;;;3.55;52.25
40372;BME280;28564;53.346;-6.554;2023-03-14T08:04:45;99882.66;;;3.85;52.29
40372;BME280;28564;53.346;-6.554;2023-03-14T08:07:13;99885.87;;;3.94;52.25
40372;BME280;28564;53.346;-6.554;2023-03-14T08:09:40;99887.90;;;3.83;52.61
40372;BME280;28564;53.346;-6.554;2023-03-14T08:12:07;99892.27;;;4.05;52.72
40372;BME280;28564;53.346;-6.554;2023-03-14T08:14:35;99897.59;;;4.25;52.72
40372;BME280;28564;53.346;-6.554;2023-03-14T08:17:02;99898.36;;;4.46;52.60
40372;BME280;28564;53.346;-6.554;2023-03-14T08:19:30;99903.89;;;4.30;52.08
40372;BME280;28564;53.346;-6.554;2023-03-14T08:21:57;99903.51;;;4.29;51.92
40372;BME280;28564;53.346;-6.554;2023-03-14T08:24:25;99901.01;;;4.28;51.64
40372;BME280;28564;53.346;-6.554;2023-03-14T08:26:52;99900.26;;;4.71;51.56
40372;BME280;28564;53.346;-6.554;2023-03-14T08:29:19;99905.70;;;4.44;51.53
40372;BME280;28564;53.346;-6.554;2023-03-14T08:31:47;99914.96;;;4.42;51.49
40372;BME280;28564;53.346;-6.554;2023-03-14T08:34:14;99922.35;;;4.18;51.56
40372;BME280;28564;53.346;-6.554;2023-03-14T08:36:42;99923.05;;;4.52;51.60
40372;BME280;28564;53.346;-6.554;2023-03-14T08:39:09;99927.80;;;4.67;51.52
40372;BME280;28564;53.346;-6.554;2023-03-14T08:41:36;99933.96;;;4.80;51.38
40372;BME280;28564;53.346;-6.554;2023-03-14T08:44:04;99934.63;;;4.86;51.11
40372;BME280;28564;53.346;-6.554;2023-03-14T08:46:31;99925.94;;;4.32;51.19
40372;BME280;28564;53.346;-6.554;2023-03-14T08:48:59;99932.79;;;4.76;51.48
40372;BME280;28564;53.346;-6.554;2023-03-14T08:51:27;99939.20;;;4.76;51.45
40372;BME280;28564;53.346;-6.554;2023-03-14T08:53:54;99938.27;;;4.47;51.62
40372;BME280;28564;53.346;-6.554;2023-03-14T08:56:22;99940.77;;;4.49;51.99
40372;BME280;28564;53.346;-6.554;2023-03-14T08:58:50;99943.97;;;4.60;52.02
40372;BME280;28564;53.346;-6.554;2023-03-14T09:01:17;99947.14;;;4.47;52.16
40372;BME280;28564;53.346;-6.554;2023-03-14T09:03:44;99951.06;;;4.79;52.19
40372;BME280;28564;53.346;-6.554;2023-03-14T09:06:11;99948.63;;;4.82;52.10
40372;BME280;28564;53.346;-6.554;2023-03-14T09:08:39;99947.84;;;4.65;52.53
40372;BME280;28564;53.346;-6.554;2023-03-14T09:11:07;99950.16;;;4.74;52.48
40372;BME280;28564;53.346;-6.554;2023-03-14T09:13:35;99951.95;;;4.86;52.18
40372;BME280;28564;53.346;-6.554;2023-03-14T09:16:02;99956.73;;;4.91;52.36
40372;BME280;28564;53.346;-6.554;2023-03-14T09:18:29;99960.17;;;5.02;52.27
40372;BME280;28564;53.346;-6.554;2023-03-14T09:20:56;99960.65;;;5.07;52.09
40372;BME280;28564;53.346;-6.554;2023-03-14T09:23:24;99966.84;;;5.15;52.03
40372;BME280;28564;53.346;-6.554;2023-03-14T09:25:54;99963.66;;;5.22;52.07
40372;BME280;28564;53.346;-6.554;2023-03-14T09:28:21;99969.56;;;5.31;52.17
40372;BME280;28564;53.346;-6.554;2023-03-14T09:30:49;99966.77;;;5.40;52.17
40372;BME280;28564;53.346;-6.554;2023-03-14T09:33:16;99966.40;;;5.18;52.31
40372;BME280;28564;53.346;-6.554;2023-03-14T09:35:44;99974.48;;;5.61;52.42
40372;BME280;28564;53.346;-6.554;2023-03-14T09:38:11;99975.49;;;5.50;52.11
40372;BME280;28564;53.346;-6.554;2023-03-14T09:40:39;99973.55;;;5.84;51.80
40372;BME280;28564;53.346;-6.554;2023-03-14T09:43:10;99978.36;;;5.66;51.52
40372;BME280;28564;53.346;-6.554;2023-03-14T09:45:42;99983.16;;;5.70;51.76
40372;BME280;28564;53.346;-6.554;2023-03-14T09:48:16;99981.83;;;5.72;51.69
40372;BME280;28564;53.346;-6.554;2023-03-14T09:50:46;99984.69;;;5.82;51.93
40372;BME280;28564;53.346;-6.554;2023-03-14T09:53:17;99992.45;;;6.11;51.31
40372;BME280;28564;53.346;-6.554;2023-03-14T09:55:45;99999.60;;;6.02;51.20
40372;BME280;28564;53.346;-6.554;2023-03-14T09:58:17;100002.94;;;6.31;50.63
40372;BME280;28564;53.346;-6.554;2023-03-14T10:00:45;100011.53;;;6.12;50.19
40372;BME280;28564;53.346;-6.554;2023-03-14T10:03:24;100022.63;;;6.20;49.72
40372;BME280;28564;53.346;-6.554;2023-03-14T10:05:52;100022.99;;;6.27;49.44
40372;BME280;28564;53.346;-6.554;2023-03-14T10:08:21;100033.35;;;6.41;49.96
40372;BME280;28564;53.346;-6.554;2023-03-14T10:10:48;100032.96;;;6.58;49.00
40372;BME280;28564;53.346;-6.554;2023-03-14T10:13:18;100022.97;;;6.63;48.96
40372;BME280;28564;53.346;-6.554;2023-03-14T10:15:48;100031.58;;;6.54;48.93
40372;BME280;28564;53.346;-6.554;2023-03-14T10:18:18;100028.32;;;6.91;48.91
40372;BME280;28564;53.346;-6.554;2023-03-14T10:20:46;100036.07;;;6.86;48.42
40372;BME280;28564;53.346;-6.554;2023-03-14T10:23:32;100030.18;;;7.16;48.15
40372;BME280;28564;53.346;-6.554;2023-03-14T10:26:06;100031.59;;;7.25;48.17
40372;BME280;28564;53.346;-6.554;2023-03-14T10:28:37;100037.97;;;7.65;47.62
40372;BME280;28564;53.346;-6.554;2023-03-14T10:31:06;100038.58;;;7.88;46.75
40372;BME280;28564;53.346;-6.554;2023-03-14T10:33:35;100035.25;;;8.08;46.60
40372;BME280;28564;53.346;-6.554;2023-03-14T10:36:06;100029.33;;;7.97;45.92
40372;BME280;28564;53.346;-6.554;2023-03-14T10:38:42;100031.47;;;7.99;45.61
40372;BME280;28564;53.346;-6.554;2023-03-14T10:41:16;100041.76;;;7.98;45.58
40372;BME280;28564;53.346;-6.554;2023-03-14T10:43:44;100045.35;;;8.07;45.98
40372;BME280;28564;53.346;-6.554;2023-03-14T10:46:15;100036.90;;;8.17;45.58
40372;BME280;28564;53.346;-6.554;2023-03-14T10:48:44;100034.02;;;8.17;44.96
40372;BME280;28564;53.346;-6.554;2023-03-14T10:51:19;100041.65;;;8.20;44.81
40372;BME280;28564;53.346;-6.554;2023-03-14T10:53:50;100045.54;;;8.61;45.06
40372;BME280;28564;53.346;-6.554;2023-03-14T10:56:23;100041.50;;;8.48;43.90
40372;BME280;28564;53.346;-6.554;2023-03-14T10:58:53;100054.91;;;8.29;43.47
40372;BME280;28564;53.346;-6.554;2023-03-14T11:01:31;100050.31;;;8.63;43.34
40372;BME280;28564;53.346;-6.554;2023-03-14T11:04:13;100053.92;;;8.62;43.51
40372;BME280;28564;53.346;-6.554;2023-03-14T11:06:43;100052.43;;;8.64;43.08
40372;BME280;28564;53.346;-6.554;2023-03-14T11:09:18;100058.89;;;9.35;42.78
40372;BME280;28564;53.346;-6.554;2023-03-14T11:11:47;100050.79;;;9.27;42.17
40372;BME280;28564;53.346;-6.554;2023-03-14T11:14:22;100062.35;;;9.69;42.41
40372;BME280;28564;53.346;-6.554;2023-03-14T11:16:55;100063.21;;;9.91;40.81
40372;BME280;28564;53.346;-6.554;2023-03-14T11:19:35;100068.54;;;9.96;39.62
40372;BME280;28564;53.346;-6.554;2023-03-14T11:22:14;100049.90;;;9.99;39.31
40372;BME280;28564;53.346;-6.554;2023-03-14T11:25:01;100056.24;;;10.04;40.04
40372;BME280;28564;53.346;-6.554;2023-03-14T11:27:39;100047.82;;;9.96;39.99
40372;BME280;28564;53.346;-6.554;2023-03-14T11:30:17;100050.49;;;10.15;40.57
40372;BME280;28564;53.346;-6.554;2023-03-14T11:32:46;100049.72;;;10.36;40.41
40372;BME280;28564;53.346;-6.554;2023-03-14T11:35:22;100062.78;;;10.40;38.96
40372;BME280;28564;53.346;-6.554;2023-03-14T11:37:54;100057.41;;;10.43;38.17
40372;BME280;28564;53.346;-6.554;2023-03-14T11:40:24;100060.83;;;10.28;37.42
40372;BME280;28564;53.346;-6.554;2023-03-14T11:43:00;100053.61;;;10.31;37.79
40372;BME280;28564;53.346;-6.554;2023-03-14T11:45:35;100060.58;;;10.36;38.20
40372;BME280;28564;53.346;-6.554;2023-03-14T11:48:22;100069.40;;;10.50;37.71
40372;BME280;28564;53.346;-6.554;2023-03-14T11:50:55;100055.26;;;10.35;38.33
40372;BME280;28564;53.346;-6.554;2023-03-14T11:53:35;100069.43;;;10.25;38.12
40372;BME280;28564;53.346;-6.554;2023-03-14T11:56:04;100044.41;;;10.15;38.97
40372;BME280;28564;53.346;-6.554;2023-03-14T11:58:47;100050.85;;;10.26;37.89
40372;BME280;28564;53.346;-6.554;2023-03-14T12:01:18;100051.96;;;9.91;37.88
40372;BME280;28564;53.346;-6.554;2023-03-14T12:03:53;100057.81;;;9.74;38.53
40372;BME280;28564;53.346;-6.554;2023-03-14T12:06:37;100059.26;;;8.91;40.48
40372;BME280;28564;53.346;-6.554;2023-03-14T12:09:08;100066.58;;;8.86;42.59
40372;BME280;28564;53.346;-6.554;2023-03-14T12:11:40;100079.90;;;8.47;44.15
40372;BME280;28564;53.346;-6.554;2023-03-14T12:14:20;100099.93;;;8.44;45.62
40372;BME280;28564;53.346;-6.554;2023-03-14T12:16:52;100089.23;;;8.19;46.15
40372;BME280;28564;53.346;-6.554;2023-03-14T12:19:29;100093.95;;;8.24;47.25
40372;BME280;28564;53.346;-6.554;2023-03-14T12:22:01;100106.74;;;8.18;48.06
40372;BME280;28564;53.346;-6.554;2023-03-14T12:24:34;100107.02;;;8.23;48.39
40372;BME280;28564;53.346;-6.554;2023-03-14T12:27:05;100106.51;;;8.26;48.12
40372;BME280;28564;53.346;-6.554;2023-03-14T12:29:33;100103.07;;;8.24;47.97
40372;BME280;28564;53.346;-6.554;2023-03-14T12:32:24;100100.03;;;8.02;47.39
40372;BME280;28564;53.346;-6.554;2023-03-14T12:34:52;100109.29;;;8.31;47.13
40372;BME280;28564;53.346;-6.554;2023-03-14T12:37:28;100112.84;;;8.20;47.05
40372;BME280;28564;53.346;-6.554;2023-03-14T12:40:04;100101.17;;;8.56;47.64
40372;BME280;28564;53.346;-6.554;2023-03-14T12:42:45;100106.25;;;8.25;47.65
40372;BME280;28564;53.346;-6.554;2023-03-14T12:45:28;100110.09;;;8.46;47.58
40372;BME280;28564;53.346;-6.554;2023-03-14T12:48:16;100112.58;;;8.95;47.45
40372;BME280;28564;53.346;-6.554;2023-03-14T12:50:54;100122.96;;;9.33;46.53
40372;BME280;28564;53.346;-6.554;2023-03-14T12:53:41;100128.82;;;9.29;45.34
40372;BME280;28564;53.346;-6.554;2023-03-14T12:56:22;100126.33;;;9.42;45.01
40372;BME280;28564;53.346;-6.554;2023-03-14T12:59:31;100118.16;;;9.42;45.03
40372;BME280;28564;53.346;-6.554;2023-03-14T13:02:02;100116.89;;;9.30;45.34
40372;BME280;28564;53.346;-6.554;2023-03-14T13:04:33;100118.91;;;9.08;44.71
40372;BME280;28564;53.346;-6.554;2023-03-14T13:07:02;100119.32;;;9.25;45.27
40372;BME280;28564;53.346;-6.554;2023-03-14T13:09:52;100117.57;;;8.85;45.53